KMCO/MCO METAR and TAF weather

Enter ICAO airport designator
Station Type Date Time Source
KMCO METAR 2020/01/27 10:53 UTC NOAA

KMCO 271053Z 34004KT 10SM FEW075 BKN110 OVC200 13/08 A2996 RMK AO2 PRESRR SLP146 T01280083


Station Type Date Time Source
KMCO Decoded METAR 2020/01/27 10:53 UTC NOAA

ORLANDO INTERNATIONAL AIRPORT , FL, United States (KMCO) 28-25N 81-20W 29M
Jan 27, 2020 - 05:53 AM EST / 2020.01.27 1053 UTC
Wind: from the NNW (340 degrees) at 5 MPH (4 KT):0
Visibility: 10 mile(s):0
Sky conditions: overcast
Temperature: 55.0 F (12.8 C)
Dew Point: 46.9 F (8.3 C)
Relative Humidity: 74%
Pressure (altimeter): 29.96 in. Hg (1014 hPa)
Pressure tendency: rising rapidly
ob: KMCO 271053Z 34004KT 10SM FEW075 BKN110 OVC200 13/08 A2996 RMK AO2 PRESRR SLP146 T01280083
cycle: 11

Station Type Date Time Source
KMCO TAF 2020/01/27 09:59 UTC NOAA

TAF
AMD KMCO 270859Z 2709/2812 18004KT P6SM -RA SCT070 OVC100
FM271600 VRB05KT P6SM SCT050 OVC070
FM280000 04003KT P6SM OVC050

Example: see airport list